Ridge Farm, IL (61870)

10:48 AM CST on December 27, 2014 (GMT -0600)
Vermilion County Emergency Management Agency | Change Station
CLOSE
Current Station
Personal Weather Station
Location: Danville, IL
Elevation: 655 ft
Nearby Weather Stations

Elev 655 ft 40.08 °N, 87.63 °W | Updated 3 seconds ago

Overcast
Overcast
46.7 °F
Feels Like 41 °F
N
12.7
Wind Variable Wind from SW
Gusts 12.7 mph

Today
High -- | Low -- °F
--% Chance of Precip.
Yesterday
High -- | Low -- °F
Precip. -- in
7:11 AM 4:32 PM
Waxing Crescent, 38% visible
Pressure 30.14 in
Visibility 3.0 miles
Clouds Overcast 400 ft
Windchill 41 °F
Dew Point 42 °F
Humidity 82%
Rainfall 0.02 in
Snow Depth Not available.
UV 1 out of 12
Pollen .10 out of 12
Air Quality Not available.
Flu Activity Not available.
METAR KPRG 271635Z AUTO 22011KT 3SM BR OVC004 08/08 A3014 RMK AO2 T00800078

More Conditions Fewer Conditions

Pressure 30.14 in
Visibility 3.0 miles
Clouds Overcast 400 ft
Windchill 41 °F
Dew Point 42 °F
Humidity 82%
Rainfall 0.02 in
Snow Depth Not available.
UV 1 out of 12
Pollen .10 out of 12
Air Quality Not available.
Flu Activity Not available.
METAR KPRG 271635Z AUTO 22011KT 3SM BR OVC004 08/08 A3014 RMK AO2 T00800078

More Conditions Fewer Conditions

10-Day Weather Forecast

Almanac

Astronomy

Dec. 27, 2014 Rise Set
Actual Time
Civil Twilight
Nautical Twilight
Astronomical Twilight
Moon
Length of Visible Light
Length of Day
Tomorrow will be .
, % of the Moon is Illuminated

Today's Extremes

State Highs State Lows

Community

WunderPhotos

Upload Photos

1,780,958 photos uploaded!

WunderBlogs® & News

Nearby

Air Quality

  Air Quality AQ Index Pollutant
Not available.

Snow Depth

Station Depth Elevation

Earthquake Activity

City Distance Mag. Time & Date
Minimum magnitude displayed is 2.5.

Coastal Water Temperatures

Place Temperature

Nearby Weather Stations